createdAt,value
2018-09-04T00:00:51.233Z,72.02
2018-09-04T00:03:18.745Z,72.19
2018-09-04T00:05:46.206Z,72.55
2018-09-04T00:08:13.604Z,72.70
2018-09-04T00:10:41.093Z,73.28
2018-09-04T00:13:08.562Z,73.56
2018-09-04T00:15:36.043Z,74.07
2018-09-04T00:18:03.789Z,74.10
2018-09-04T00:20:31.417Z,74.28
2018-09-04T00:22:58.938Z,73.87
2018-09-04T00:25:26.365Z,74.58
2018-09-04T00:27:53.784Z,74.41
2018-09-04T00:30:21.289Z,74.71
2018-09-04T00:32:48.737Z,74.61
2018-09-04T00:35:16.289Z,74.59
2018-09-04T00:37:43.804Z,74.09
2018-09-04T00:40:11.482Z,74.44
2018-09-04T00:42:38.937Z,74.50
2018-09-04T00:45:06.536Z,74.61
2018-09-04T00:47:34.005Z,74.45
2018-09-04T00:50:01.507Z,74.51
2018-09-04T00:52:28.954Z,74.78
2018-09-04T00:54:56.369Z,75.01
2018-09-04T00:57:23.846Z,75.46
2018-09-04T00:59:51.317Z,75.00
2018-09-04T01:02:18.820Z,74.82
2018-09-04T01:04:47.301Z,75.15
2018-09-04T01:07:15.090Z,74.99
2018-09-04T01:09:42.558Z,75.28
2018-09-04T01:12:10.047Z,74.79
2018-09-04T01:14:37.509Z,74.93
2018-09-04T01:17:05.262Z,74.98
2018-09-04T01:19:33.012Z,75.12
2018-09-04T01:22:00.520Z,75.87
2018-09-04T01:24:28.045Z,75.40
2018-09-04T01:26:55.501Z,76.11
2018-09-04T01:29:23.093Z,76.30
2018-09-04T01:31:50.601Z,76.45
2018-09-04T01:34:18.018Z,76.43
2018-09-04T01:36:45.492Z,76.83
2018-09-04T01:39:12.993Z,76.65
2018-09-04T01:41:40.669Z,76.08
2018-09-04T01:44:08.238Z,76.47
2018-09-04T01:46:35.791Z,76.69
2018-09-04T01:49:03.330Z,77.57
2018-09-04T01:51:30.799Z,76.98
2018-09-04T01:53:58.249Z,77.04
2018-09-04T01:56:25.759Z,77.16
2018-09-04T01:58:53.241Z,77.14
2018-09-04T02:01:20.848Z,77.40
2018-09-04T02:03:48.331Z,77.18
2018-09-04T02:06:16.098Z,77.51
2018-09-04T02:08:43.586Z,76.85
2018-09-04T02:11:11.028Z,77.14
2018-09-04T02:13:38.468Z,76.98
2018-09-04T02:16:06.059Z,76.36
2018-09-04T02:18:33.472Z,76.56
2018-09-04T02:21:01.112Z,76.88
2018-09-04T02:23:28.593Z,76.71
2018-09-04T02:25:56.027Z,76.52
2018-09-04T02:28:23.519Z,76.28
2018-09-04T02:30:50.955Z,76.94
2018-09-04T02:33:18.500Z,76.95
2018-09-04T02:35:45.995Z,76.82
2018-09-04T02:38:13.435Z,76.85
2018-09-04T02:40:40.973Z,77.17
2018-09-04T02:43:08.606Z,76.80
2018-09-04T02:45:36.076Z,77.10
2018-09-04T02:48:03.562Z,76.62
2018-09-04T02:50:31.028Z,76.46
2018-09-04T02:52:58.565Z,76.85
2018-09-04T02:55:26.003Z,77.13
2018-09-04T02:57:53.470Z,76.94
2018-09-04T03:00:21.018Z,77.55
2018-09-04T03:02:48.568Z,76.66
2018-09-04T03:05:16.015Z,77.20
2018-09-04T03:07:43.491Z,77.13
2018-09-04T03:10:10.964Z,76.91
2018-09-04T03:12:38.382Z,76.87
2018-09-04T03:15:05.975Z,76.33
2018-09-04T03:17:33.531Z,76.51
2018-09-04T03:20:01.008Z,76.61
2018-09-04T03:22:28.759Z,76.11
2018-09-04T03:24:56.291Z,75.96
2018-09-04T03:27:23.792Z,75.99
2018-09-04T03:29:51.303Z,76.30
2018-09-04T03:32:18.763Z,76.07
2018-09-04T03:34:46.212Z,75.89
2018-09-04T03:37:13.748Z,75.83
2018-09-04T03:39:41.268Z,75.68
2018-09-04T03:42:08.712Z,76.00
2018-09-04T03:44:36.265Z,75.48
2018-09-04T03:47:03.861Z,75.61
2018-09-04T03:49:31.315Z,75.95
2018-09-04T03:51:58.810Z,75.54
2018-09-04T03:54:26.274Z,75.76
2018-09-04T03:56:53.663Z,75.60
2018-09-04T03:59:21.157Z,75.25
2018-09-04T04:01:48.600Z,75.57
2018-09-04T04:04:16.074Z,75.03
2018-09-04T04:06:43.674Z,74.94
2018-09-04T04:09:11.448Z,74.97
2018-09-04T04:11:39.069Z,74.92
2018-09-04T04:14:06.762Z,74.89
2018-09-04T04:16:34.225Z,75.17
2018-09-04T04:19:01.683Z,74.70
2018-09-04T04:21:29.227Z,75.04
2018-09-04T04:23:57.101Z,74.76
2018-09-04T04:26:24.466Z,74.81
2018-09-04T04:28:52.015Z,75.00
2018-09-04T04:31:19.516Z,74.69
2018-09-04T04:33:47.023Z,74.67
2018-09-04T04:36:14.528Z,74.67
2018-09-04T04:38:41.981Z,75.05
2018-09-04T04:41:09.430Z,74.91
2018-09-04T04:43:36.964Z,74.82
2018-09-04T04:46:04.777Z,74.86
2018-09-04T04:48:32.286Z,74.88
2018-09-04T04:50:59.848Z,74.87
2018-09-04T04:53:27.316Z,74.73
2018-09-04T04:55:54.813Z,74.87
2018-09-04T04:58:22.252Z,75.31
2018-09-04T05:00:49.748Z,75.33
2018-09-04T05:03:17.211Z,74.98
2018-09-04T05:05:44.729Z,75.21
2018-09-04T05:08:12.149Z,75.27
2018-09-04T05:10:39.595Z,75.10
2018-09-04T05:13:07.150Z,74.84
2018-09-04T05:15:34.667Z,74.79
2018-09-04T05:18:02.153Z,75.20
2018-09-04T05:20:29.884Z,75.12
2018-09-04T05:22:57.354Z,74.69
2018-09-04T05:25:24.868Z,75.08
2018-09-04T05:27:52.326Z,74.97
2018-09-04T05:30:19.848Z,74.98
2018-09-04T05:33:20.729Z,74.86
2018-09-04T05:35:52.076Z,74.87
2018-09-04T05:38:19.508Z,74.73
2018-09-04T05:40:47.023Z,74.69
2018-09-04T05:43:18.090Z,74.79
2018-09-04T05:45:45.580Z,74.61
2018-09-04T05:48:14.818Z,74.70
2018-09-04T05:50:42.364Z,74.60
2018-09-04T05:53:09.801Z,74.32
2018-09-04T05:55:37.296Z,74.18
2018-09-04T05:58:04.815Z,74.41
2018-09-04T06:00:37.655Z,74.34
2018-09-04T06:03:05.185Z,74.38
2018-09-04T06:05:32.622Z,74.51
2018-09-04T06:08:00.124Z,74.38
2018-09-04T06:10:27.613Z,74.51
2018-09-04T06:12:55.108Z,74.23
2018-09-04T06:15:22.594Z,74.10
2018-09-04T06:17:50.101Z,74.37
2018-09-04T06:20:17.605Z,74.10
2018-09-04T06:22:45.105Z,74.45
2018-09-04T06:25:12.632Z,74.39
2018-09-04T06:27:40.250Z,74.16
2018-09-04T06:30:07.989Z,74.24
2018-09-04T06:32:35.405Z,73.54
2018-09-04T06:35:02.897Z,74.15
2018-09-04T06:37:30.366Z,74.05
2018-09-04T06:39:58.758Z,73.64
2018-09-04T06:42:26.235Z,73.81
2018-09-04T06:44:53.735Z,74.01
2018-09-04T06:47:21.184Z,73.72
2018-09-04T06:49:49.164Z,73.59
2018-09-04T06:52:16.650Z,74.15
2018-09-04T06:54:44.135Z,73.73
2018-09-04T06:57:11.608Z,74.29
2018-09-04T06:59:39.060Z,74.13
2018-09-04T07:02:06.544Z,74.21
2018-09-04T07:04:34.082Z,74.20
2018-09-04T07:07:01.564Z,73.71
2018-09-04T07:09:29.002Z,74.04
2018-09-04T07:11:56.538Z,73.66
2018-09-04T07:14:24.036Z,73.86
2018-09-04T07:16:51.562Z,73.89
2018-09-04T07:19:19.801Z,73.62
2018-09-04T07:21:47.402Z,73.80
2018-09-04T07:24:15.405Z,73.66
2018-09-04T07:26:43.419Z,73.10
2018-09-04T07:29:11.124Z,73.18
2018-09-04T07:31:38.574Z,73.19
2018-09-04T07:34:06.066Z,73.19
2018-09-04T07:36:33.745Z,73.10
2018-09-04T07:39:01.253Z,72.96
2018-09-04T07:41:28.688Z,73.10
2018-09-04T07:43:56.216Z,73.12
2018-09-04T07:46:23.654Z,73.53
2018-09-04T07:48:51.418Z,73.17
2018-09-04T07:51:19.162Z,73.06
2018-09-04T07:53:46.799Z,73.37
2018-09-04T07:56:14.891Z,73.01
2018-09-04T07:58:42.443Z,72.85
2018-09-04T08:01:09.880Z,72.78
2018-09-04T08:03:37.376Z,72.71
2018-09-04T08:06:05.172Z,72.62
2018-09-04T08:08:32.734Z,73.04
2018-09-04T08:11:00.252Z,72.50
2018-09-04T08:13:27.695Z,72.35
2018-09-04T08:15:55.156Z,72.38
2018-09-04T08:18:22.589Z,72.48
2018-09-04T08:20:50.160Z,72.16
2018-09-04T08:23:17.645Z,72.54
2018-09-04T08:25:45.079Z,72.25
2018-09-04T08:28:12.667Z,71.89
2018-09-04T08:30:40.288Z,72.14
2018-09-04T08:33:07.808Z,71.59
2018-09-04T08:35:35.313Z,71.83
2018-09-04T08:38:02.794Z,71.47
2018-09-04T08:40:31.878Z,71.72
2018-09-04T08:42:59.479Z,71.33
2018-09-04T08:45:26.984Z,71.54
2018-09-04T08:47:54.478Z,70.96
2018-09-04T08:50:21.946Z,71.28
2018-09-04T08:52:49.730Z,71.04
2018-09-04T08:55:17.283Z,70.43
2018-09-04T08:57:44.846Z,70.26
2018-09-04T09:00:13.633Z,70.10
2018-09-04T09:02:41.086Z,70.33
2018-09-04T09:05:08.576Z,70.55
2018-09-04T09:07:36.080Z,69.97
2018-09-04T09:10:03.720Z,69.58
2018-09-04T09:12:31.202Z,70.18
2018-09-04T09:14:58.773Z,69.89
2018-09-04T09:17:26.227Z,69.45
2018-09-04T09:19:53.817Z,69.43
2018-09-04T09:22:21.276Z,69.46
2018-09-04T09:24:48.745Z,68.88
2018-09-04T09:27:16.306Z,68.54
2018-09-04T09:29:43.752Z,68.26
2018-09-04T09:32:11.484Z,67.99
2018-09-04T09:34:39.034Z,68.12
2018-09-04T09:37:06.594Z,67.88
2018-09-04T09:39:33.999Z,67.59
2018-09-04T09:42:01.481Z,67.30
2018-09-04T09:44:28.913Z,67.62
2018-09-04T09:47:02.069Z,67.68
2018-09-04T09:49:30.445Z,67.23
2018-09-04T09:51:57.913Z,66.90
2018-09-04T09:54:25.626Z,66.21
2018-09-04T09:56:53.102Z,65.50
2018-09-04T09:59:20.626Z,65.19
2018-09-04T10:01:57.406Z,64.03
2018-09-04T10:04:25.740Z,63.63
2018-09-04T10:06:53.244Z,63.45
2018-09-04T10:09:20.921Z,62.77
2018-09-04T10:11:48.540Z,62.51
2018-09-04T10:14:16.095Z,61.70
2018-09-04T10:16:43.594Z,60.57
2018-09-04T10:19:11.085Z,60.25
2018-09-04T10:21:38.565Z,59.15
2018-09-04T10:24:06.010Z,58.99
2018-09-04T10:26:33.606Z,58.48
2018-09-04T10:29:01.102Z,57.69
2018-09-04T10:31:28.568Z,57.07
2018-09-04T10:33:56.237Z,57.83
2018-09-04T10:36:23.776Z,58.18
2018-09-04T10:38:55.738Z,58.28
2018-09-04T10:41:23.172Z,58.44
2018-09-04T10:43:50.566Z,58.63
2018-09-04T10:46:18.034Z,58.40
2018-09-04T10:48:45.485Z,58.55
2018-09-04T10:51:12.955Z,58.74
2018-09-04T10:53:40.422Z,59.07
2018-09-04T10:56:08.241Z,58.83
2018-09-04T10:58:35.715Z,59.46
2018-09-04T11:01:03.334Z,59.45
2018-09-04T11:03:30.803Z,59.00
2018-09-04T11:05:58.302Z,59.13
2018-09-04T11:08:25.793Z,58.96
2018-09-04T11:10:53.280Z,59.42
2018-09-04T11:13:20.822Z,59.18
2018-09-04T11:15:48.291Z,59.09
2018-09-04T11:18:15.777Z,58.30
2018-09-04T11:20:43.271Z,58.27
2018-09-04T11:23:10.771Z,57.64
2018-09-04T11:25:38.341Z,57.43
2018-09-04T11:28:06.185Z,56.99
2018-09-04T11:30:33.683Z,57.33
2018-09-04T11:33:01.098Z,56.93
2018-09-04T11:35:28.850Z,55.91
2018-09-04T11:37:56.325Z,55.68
2018-09-04T11:40:23.799Z,55.66
2018-09-04T11:43:54.031Z,56.32
2018-09-04T11:46:21.503Z,56.01
2018-09-04T11:48:49.042Z,55.99
2018-09-04T11:51:16.532Z,56.75
2018-09-04T11:53:44.080Z,56.65
2018-09-04T11:56:11.746Z,56.11
2018-09-04T11:58:39.147Z,56.38
2018-09-04T12:01:09.625Z,56.07
2018-09-04T12:03:37.214Z,56.25
2018-09-04T12:06:04.694Z,56.36
2018-09-04T12:08:32.333Z,57.12
2018-09-04T12:10:59.806Z,56.76
2018-09-04T12:13:30.641Z,56.37
2018-09-04T12:15:58.581Z,56.20
2018-09-04T12:18:26.244Z,56.65
2018-09-04T12:20:54.991Z,56.71
2018-09-04T12:23:22.390Z,56.52
2018-09-04T12:25:51.388Z,56.99
2018-09-04T12:28:19.016Z,57.05
2018-09-04T12:30:46.469Z,56.91
2018-09-04T12:33:13.955Z,56.71
2018-09-04T12:35:41.650Z,57.36
2018-09-04T12:38:25.324Z,57.56
2018-09-04T12:40:52.832Z,57.17
2018-09-04T12:43:20.303Z,57.19
2018-09-04T12:45:56.321Z,57.63
2018-09-04T12:48:28.031Z,57.18
2018-09-04T12:50:56.522Z,56.95
2018-09-04T12:53:24.622Z,57.31
2018-09-04T12:55:52.197Z,57.73
2018-09-04T12:58:19.827Z,57.70
2018-09-04T13:00:48.415Z,57.83
2018-09-04T13:03:17.195Z,57.79
2018-09-04T13:05:44.695Z,57.71
2018-09-04T13:08:13.049Z,56.96
2018-09-04T13:10:40.578Z,57.23
2018-09-04T13:13:08.137Z,57.49
2018-09-04T13:15:35.663Z,57.56
2018-09-04T13:18:03.226Z,57.26
2018-09-04T13:20:30.666Z,57.71
2018-09-04T13:22:58.176Z,57.82
2018-09-04T13:25:25.710Z,57.67
2018-09-04T13:27:53.144Z,57.60
2018-09-04T13:30:20.654Z,57.87
2018-09-04T13:32:48.151Z,58.18
2018-09-04T13:35:15.619Z,57.46
2018-09-04T13:37:43.472Z,57.76
2018-09-04T13:40:10.958Z,57.60
2018-09-04T13:42:38.463Z,57.78
2018-09-04T13:45:06.100Z,58.27
2018-09-04T13:47:34.145Z,57.83
2018-09-04T13:50:01.596Z,58.19
2018-09-04T13:52:29.967Z,57.63
2018-09-04T13:54:57.536Z,57.89
2018-09-04T13:57:25.548Z,57.76
2018-09-04T13:59:53.257Z,57.40
2018-09-04T14:02:20.731Z,57.34
2018-09-04T14:04:48.231Z,57.54
2018-09-04T14:07:15.706Z,57.43
2018-09-04T14:09:43.467Z,57.56
2018-09-04T14:12:10.987Z,57.72
2018-09-04T14:14:38.395Z,58.28
2018-09-04T14:17:08.336Z,57.91
2018-09-04T14:19:35.796Z,58.42
2018-09-04T14:22:03.278Z,58.37
2018-09-04T14:24:30.854Z,57.87
2018-09-04T14:26:58.353Z,58.23
2018-09-04T14:29:54.396Z,58.35
2018-09-04T14:31:53.529Z,58.34
2018-09-04T14:34:21.048Z,58.48
2018-09-04T14:36:48.703Z,58.11
2018-09-04T14:39:16.295Z,57.95
2018-09-04T14:41:43.766Z,58.24
2018-09-04T14:44:11.250Z,58.32
2018-09-04T14:46:38.687Z,58.41
2018-09-04T14:49:06.297Z,57.95
2018-09-04T14:51:33.794Z,58.33
2018-09-04T14:54:01.186Z,58.37
2018-09-04T14:56:28.711Z,58.45
2018-09-04T14:58:56.478Z,58.34
2018-09-04T15:01:24.176Z,58.28
2018-09-04T15:03:51.623Z,58.61
2018-09-04T15:06:19.090Z,59.09
2018-09-04T15:08:46.610Z,58.75
2018-09-04T15:11:14.103Z,59.18
2018-09-04T15:13:41.528Z,59.45
2018-09-04T15:16:09.074Z,58.90
2018-09-04T15:18:36.530Z,58.96
2018-09-04T15:21:04.037Z,59.06
2018-09-04T15:23:31.481Z,59.43
2018-09-04T15:25:58.994Z,59.23
2018-09-04T15:28:26.546Z,59.44
2018-09-04T15:30:54.093Z,59.73
2018-09-04T15:33:21.569Z,59.94
2018-09-04T15:35:49.018Z,59.76
2018-09-04T15:38:16.485Z,59.87
2018-09-04T15:40:44.139Z,60.39
2018-09-04T15:43:11.590Z,60.60
2018-09-04T15:45:39.091Z,60.56
2018-09-04T15:48:06.618Z,60.38
2018-09-04T15:50:34.030Z,60.28
2018-09-04T15:53:01.468Z,60.89
2018-09-04T15:55:29.004Z,60.93
2018-09-04T15:57:56.492Z,61.00
2018-09-04T16:00:24.022Z,61.13
2018-09-04T16:02:51.541Z,61.38
2018-09-04T16:05:19.064Z,61.44
2018-09-04T16:07:46.613Z,61.80
2018-09-04T16:10:14.129Z,61.92
2018-09-04T16:12:41.613Z,61.58
2018-09-04T16:15:09.090Z,62.29
2018-09-04T16:17:36.577Z,62.25
2018-09-04T16:20:04.106Z,62.45
2018-09-04T16:22:31.517Z,62.63
2018-09-04T16:24:59.006Z,62.88
2018-09-04T16:27:26.444Z,62.95
2018-09-04T16:29:53.957Z,63.20
2018-09-04T16:32:21.442Z,63.35
2018-09-04T16:34:49.088Z,63.47
2018-09-04T16:37:16.494Z,63.95
2018-09-04T16:39:43.985Z,64.17
2018-09-04T16:42:11.722Z,64.27
2018-09-04T16:44:39.321Z,64.09
2018-09-04T16:47:06.769Z,64.18
2018-09-04T16:49:34.237Z,64.38
2018-09-04T16:52:01.914Z,64.26
2018-09-04T16:54:29.656Z,64.90
2018-09-04T16:56:58.394Z,65.09
2018-09-04T16:59:25.892Z,64.69
2018-09-04T17:01:53.385Z,65.07
2018-09-04T17:04:21.016Z,65.07
2018-09-04T17:06:48.487Z,65.68
2018-09-04T17:09:16.146Z,65.51
2018-09-04T17:11:43.744Z,65.33
2018-09-04T17:14:11.285Z,65.30
2018-09-04T17:16:38.792Z,65.75
2018-09-04T17:19:06.528Z,65.47
2018-09-04T17:21:34.164Z,65.57
2018-09-04T17:24:01.593Z,65.85
2018-09-04T17:26:29.093Z,65.81
2018-09-04T17:28:56.600Z,66.44
2018-09-04T17:31:24.215Z,66.23
2018-09-04T17:33:51.696Z,66.63
2018-09-04T17:36:19.356Z,66.42
2018-09-04T17:38:47.148Z,66.27
2018-09-04T17:41:14.642Z,66.83
2018-09-04T17:43:42.365Z,66.27
2018-09-04T17:46:09.900Z,66.77
2018-09-04T17:48:37.390Z,66.78
2018-09-04T17:51:04.985Z,66.76
2018-09-04T17:53:32.484Z,66.45
2018-09-04T17:55:59.917Z,67.02
2018-09-04T17:58:27.376Z,66.65
2018-09-04T18:00:54.948Z,66.92
2018-09-04T18:03:22.458Z,67.17
2018-09-04T18:05:50.039Z,66.68
2018-09-04T18:08:17.566Z,66.99
2018-09-04T18:10:44.966Z,67.03
2018-09-04T18:13:12.436Z,66.48
2018-09-04T18:15:39.918Z,66.97
2018-09-04T18:18:07.353Z,67.26
2018-09-04T18:20:34.835Z,66.77
2018-09-04T18:23:02.291Z,67.15
2018-09-04T18:25:30.034Z,67.11
2018-09-04T18:27:57.515Z,66.71
2018-09-04T18:30:24.985Z,67.06
2018-09-04T18:32:52.432Z,67.07
2018-09-04T18:35:19.905Z,67.07
2018-09-04T18:37:47.390Z,66.99
2018-09-04T18:40:14.873Z,66.79
2018-09-04T18:42:42.369Z,66.60
2018-09-04T18:45:14.768Z,67.08
2018-09-04T18:47:42.272Z,67.10
2018-09-04T18:50:09.764Z,66.81
2018-09-04T18:52:37.291Z,67.20
2018-09-04T18:55:04.815Z,66.82
2018-09-04T18:57:32.267Z,67.16
2018-09-04T18:59:59.847Z,67.21
2018-09-04T19:02:27.302Z,67.86
2018-09-04T19:04:54.776Z,67.33
2018-09-04T19:07:22.418Z,67.66
2018-09-04T19:09:49.842Z,67.61
2018-09-04T19:12:17.347Z,67.62
2018-09-04T19:14:44.781Z,67.54
2018-09-04T19:17:12.222Z,67.42
2018-09-04T19:19:39.779Z,67.61
2018-09-04T19:22:07.227Z,67.16
2018-09-04T19:24:34.796Z,67.64
2018-09-04T19:27:02.328Z,67.07
2018-09-04T19:29:29.765Z,67.21
2018-09-04T19:31:57.248Z,67.04
2018-09-04T19:34:24.761Z,67.07
2018-09-04T19:36:52.217Z,67.21
2018-09-04T19:39:19.746Z,67.44
2018-09-04T19:41:47.226Z,67.30
2018-09-04T19:44:14.629Z,67.42
2018-09-04T19:46:42.279Z,67.57
2018-09-04T19:49:09.811Z,67.21
2018-09-04T19:51:37.298Z,67.09
2018-09-04T19:54:04.781Z,67.06
2018-09-04T19:56:32.317Z,67.12
2018-09-04T19:58:59.860Z,67.12
2018-09-04T20:01:27.321Z,67.58
2018-09-04T20:03:54.809Z,67.19
2018-09-04T20:06:22.358Z,67.33
2018-09-04T20:08:50.111Z,67.29
2018-09-04T20:11:17.560Z,67.37
2018-09-04T20:13:45.002Z,67.55
2018-09-04T20:16:12.521Z,67.58
2018-09-04T20:18:39.978Z,67.03
2018-09-04T20:21:07.438Z,67.36
2018-09-04T20:23:35.019Z,67.08
2018-09-04T20:26:02.447Z,67.15
2018-09-04T20:28:29.904Z,67.03
2018-09-04T20:30:57.344Z,67.49
2018-09-04T20:33:24.779Z,67.48
2018-09-04T20:35:52.421Z,67.13
2018-09-04T20:38:19.847Z,67.54
2018-09-04T20:40:47.292Z,66.96
2018-09-04T20:43:14.732Z,67.51
2018-09-04T20:45:42.182Z,67.37
2018-09-04T20:48:09.850Z,67.47
2018-09-04T20:50:37.413Z,67.11
2018-09-04T20:53:05.325Z,67.64
2018-09-04T20:55:32.838Z,67.48
2018-09-04T20:58:11.528Z,67.19
2018-09-04T21:00:50.148Z,67.29
2018-09-04T21:03:28.860Z,67.64
2018-09-04T21:06:07.552Z,67.67
2018-09-04T21:08:46.924Z,67.70
2018-09-04T21:11:14.584Z,67.26
2018-09-04T21:13:42.041Z,68.04
2018-09-04T21:16:09.544Z,67.36
2018-09-04T21:18:37.082Z,67.65
2018-09-04T21:21:04.874Z,67.62
2018-09-04T21:23:32.350Z,67.13
2018-09-04T21:25:59.836Z,67.17
2018-09-04T21:28:27.318Z,67.55
2018-09-04T21:30:54.795Z,67.28
2018-09-04T21:33:22.216Z,67.64
2018-09-04T21:35:49.683Z,67.62
2018-09-04T21:38:17.420Z,67.71
2018-09-04T21:40:44.932Z,67.59
2018-09-04T21:43:12.371Z,67.67
2018-09-04T21:45:39.813Z,67.73
2018-09-04T21:48:07.254Z,67.40
2018-09-04T21:50:34.863Z,67.39
2018-09-04T21:53:02.307Z,67.33
2018-09-04T21:55:29.737Z,67.80
2018-09-04T21:57:57.234Z,67.75
2018-09-04T22:00:24.753Z,67.37
2018-09-04T22:02:52.412Z,67.43
2018-09-04T22:05:19.946Z,68.00
2018-09-04T22:07:47.396Z,67.86
2018-09-04T22:10:14.862Z,67.54
2018-09-04T22:12:42.393Z,67.88
2018-09-04T22:15:09.866Z,67.56
2018-09-04T22:17:37.816Z,67.93
2018-09-04T22:20:05.320Z,67.35
2018-09-04T22:22:32.757Z,67.72
2018-09-04T22:25:00.245Z,67.62
2018-09-04T22:27:27.738Z,67.60
2018-09-04T22:29:55.207Z,67.85
2018-09-04T22:32:22.652Z,68.01
2018-09-04T22:34:50.189Z,67.88
2018-09-04T22:37:17.626Z,67.55
2018-09-04T22:39:45.066Z,67.94
2018-09-04T22:42:12.559Z,67.78
2018-09-04T22:44:40.035Z,67.44
2018-09-04T22:47:07.535Z,67.51
2018-09-04T22:49:35.042Z,67.46
2018-09-04T22:52:02.753Z,67.86
2018-09-04T22:54:30.206Z,67.87
2018-09-04T22:56:57.674Z,67.47
2018-09-04T22:59:25.813Z,67.43
2018-09-04T23:01:53.424Z,67.92
2018-09-04T23:04:21.037Z,67.60
2018-09-04T23:07:51.148Z,67.72
2018-09-04T23:10:18.630Z,68.15
2018-09-04T23:12:46.352Z,68.14
2018-09-04T23:15:13.809Z,67.83
2018-09-04T23:17:41.283Z,67.82
2018-09-04T23:20:08.773Z,67.88
2018-09-04T23:22:36.214Z,67.78
2018-09-04T23:25:03.706Z,67.95
2018-09-04T23:27:31.175Z,67.86
2018-09-04T23:29:58.658Z,67.82
2018-09-04T23:32:26.101Z,68.36
2018-09-04T23:34:53.572Z,67.95
2018-09-04T23:37:21.095Z,67.94
2018-09-04T23:39:48.564Z,68.03
2018-09-04T23:42:15.995Z,67.87
2018-09-04T23:44:43.480Z,68.31
2018-09-04T23:47:10.879Z,68.37
2018-09-04T23:49:38.398Z,67.89
2018-09-04T23:52:06.089Z,68.22
2018-09-04T23:54:33.579Z,67.99
2018-09-04T23:57:01.050Z,67.95
2018-09-04T23:59:28.571Z,68.11
